Time;durP1;ratioP1;P1;durP2;ratioP2;P2;SDS_P1;SDS_P2;PMS_P1;PMS_P2;Temp;Humidity;BMP_temperature;BMP_pressure;BME280_temperature;BME280_humidity;BME280_pressure;Samples;Min_cycle;Max_cycle;Signal;HPM_P1;HPM_P2
2022/01/25 00:10:02;;;;;;;63.75;23.83;;;;;;;0.62;93.71;103368.88;5024434;28;20060;-81
2022/01/25 00:28:26;;;;;;;57.08;24.45;;;;;;;0.69;93.62;103367.13;5025900;28;20120;-77
2022/01/25 00:31:10;;;;;;;63.25;25.48;;;;;;;0.73;93.57;103360.94;5018068;28;20084;-79
2022/01/25 00:33:38;;;;;;;61.35;25.17;;;;;;;0.76;93.60;103371.69;5013692;28;20033;-77
2022/01/25 00:36:05;;;;;;;60.60;26.10;;;;;;;0.78;93.82;103369.91;5015208;28;20022;-81
2022/01/25 00:38:31;;;;;;;63.10;26.77;;;;;;;0.77;94.02;103371.69;5024049;28;20028;-77
2022/01/25 00:40:57;;;;;;;59.50;25.00;;;;;;;0.77;93.76;103371.69;5023368;28;20042;-81
2022/01/25 00:43:24;;;;;;;64.78;26.63;;;;;;;0.78;93.88;103367.22;5024573;28;20486;-77
2022/01/25 00:45:52;;;;;;;62.25;25.80;;;;;;;0.82;93.95;103371.72;5014232;28;20018;-78
2022/01/25 00:48:19;;;;;;;59.28;24.17;;;;;;;0.83;93.72;103367.25;5010297;28;20104;-74
2022/01/25 00:50:46;;;;;;;64.47;27.08;;;;;;;0.82;94.16;103369.03;5026005;28;20028;-77
2022/01/25 00:53:55;;;;;;;56.58;23.95;;;;;;;0.82;94.07;103363.69;5031248;28;20029;-76
2022/01/25 00:56:11;;;;;;;53.38;23.85;;;;;;;0.81;93.65;103359.22;5026266;28;20030;-77
2022/01/25 00:58:37;;;;;;;61.20;25.25;;;;;;;0.81;94.45;103351.19;5021007;28;20033;-77
2022/01/25 01:01:02;;;;;;;56.88;24.38;;;;;;;0.82;93.98;103352.97;5018896;28;20054;-78
2022/01/25 01:03:27;;;;;;;53.08;23.08;;;;;;;0.82;93.89;103347.59;5011945;28;20033;-75
2022/01/25 01:05:53;;;;;;;58.42;23.00;;;;;;;0.85;94.08;103354.78;5021511;28;20064;-78
2022/01/25 01:08:19;;;;;;;55.75;26.08;;;;;;;0.83;93.85;103343.16;5025200;28;20018;-74
2022/01/25 01:10:44;;;;;;;62.60;24.08;;;;;;;0.87;94.45;103353.91;5020717;28;20163;-77
2022/01/25 01:13:42;;;;;;;54.90;23.05;;;;;;;0.84;93.84;103353.91;5029598;28;20021;-74
2022/01/25 01:16:31;;;;;;;53.72;24.05;;;;;;;0.88;94.24;103361.03;5014216;28;20041;-75
2022/01/25 01:30:00;;;;;;;50.63;22.83;;;;;;;0.94;94.25;103360.22;5018772;28;20084;-79
2022/01/25 01:33:02;;;;;;;53.08;23.02;;;;;;;0.94;93.60;103365.59;5013920;28;20030;-78
2022/01/25 01:40:41;;;;;;;54.55;22.20;;;;;;;0.99;94.40;103371.88;5027662;28;20509;-78
2022/01/25 01:48:10;;;;;;;54.97;24.77;;;;;;;1.00;94.11;103370.97;5011768;28;20041;-78
2022/01/25 01:50:37;;;;;;;59.22;24.55;;;;;;;1.01;94.05;103368.31;5023404;28;20043;-78
2022/01/25 01:53:05;;;;;;;49.00;22.23;;;;;;;1.01;93.99;103364.72;5023550;28;20080;-80
2022/01/25 01:55:32;;;;;;;48.22;21.90;;;;;;;1.04;93.92;103374.59;5024653;28;20367;-73
2022/01/25 01:57:58;;;;;;;55.60;23.65;;;;;;;1.06;94.18;103372.81;5028010;28;20025;-78
2022/01/25 02:00:30;;;;;;;60.85;23.20;;;;;;;1.05;93.96;103373.69;5026275;28;20053;-80
2022/01/25 02:02:56;;;;;;;59.47;24.67;;;;;;;1.02;94.07;103367.41;5011691;28;20433;-77
2022/01/25 02:05:21;;;;;;;52.15;23.40;;;;;;;1.07;94.14;103369.22;5012137;28;20040;-73
2022/01/25 02:07:46;;;;;;;56.10;24.80;;;;;;;1.08;94.10;103368.38;5018945;28;20036;-78
2022/01/25 02:10:12;;;;;;;56.95;23.75;;;;;;;1.07;94.10;103362.09;5020348;28;20386;-77
2022/01/25 02:12:37;;;;;;;52.25;22.17;;;;;;;1.07;94.14;103355.84;5016661;28;20112;-79
2022/01/25 02:15:04;;;;;;;52.13;23.80;;;;;;;1.07;94.10;103363.88;5015076;28;20030;-79
2022/01/25 02:23:21;;;;;;;51.65;21.92;;;;;;;1.10;94.07;103359.44;5021619;28;20039;-74
2022/01/25 02:25:48;;;;;;;51.65;22.63;;;;;;;1.10;94.15;103351.41;5022646;28;20076;-77
2022/01/25 02:28:17;;;;;;;59.97;24.13;;;;;;;1.07;94.35;103337.06;5021618;28;20024;-74
2022/01/25 02:30:43;;;;;;;52.70;22.63;;;;;;;1.14;94.47;103345.19;5026003;28;20029;-78
2022/01/25 02:33:09;;;;;;;63.85;24.48;;;;;;;1.12;94.44;103354.06;5021318;28;20053;-78
2022/01/25 02:35:35;;;;;;;52.22;22.38;;;;;;;1.13;94.65;103350.53;5010432;28;20069;-79
2022/01/25 02:38:00;;;;;;;52.60;23.27;;;;;;;1.11;94.33;103341.56;5028889;28;20063;-73
2022/01/25 02:40:25;;;;;;;52.60;22.05;;;;;;;1.13;94.26;103345.19;5022127;28;20021;-73
2022/01/25 02:42:52;;;;;;;56.83;23.77;;;;;;;1.13;94.25;103334.47;5024860;28;20075;-78
2022/01/25 02:45:17;;;;;;;57.22;24.30;;;;;;;1.14;94.52;103336.25;5019260;28;20037;-78
2022/01/25 02:50:28;;;;;;;54.63;23.30;;;;;;;1.15;94.63;103338.91;5011261;28;20063;-79
2022/01/25 02:52:53;;;;;;;49.22;23.00;;;;;;;1.16;94.53;103337.13;5024658;28;20480;-73
2022/01/25 02:55:19;;;;;;;58.53;24.50;;;;;;;1.16;94.60;103345.19;5036010;28;20448;-74
2022/01/25 02:57:48;;;;;;;55.45;23.00;;;;;;;1.17;94.80;103349.69;5028564;28;20104;-78
2022/01/25 03:00:14;;;;;;;53.88;22.65;;;;;;;1.14;94.82;103334.44;5025161;28;20053;-78
2022/01/25 03:02:39;;;;;;;53.38;23.95;;;;;;;1.13;94.48;103338.03;5012881;28;20052;-79
2022/01/25 03:05:05;;;;;;;56.55;23.67;;;;;;;1.14;94.46;103334.44;5015603;28;20014;-79
2022/01/25 03:07:32;;;;;;;54.75;21.92;;;;;;;1.16;94.61;103338.03;5007618;28;20056;-78
2022/01/25 03:09:59;;;;;;;63.03;24.48;;;;;;;1.14;94.41;103323.72;5021343;28;20753;-78
2022/01/25 03:12:35;;;;;;;54.28;22.90;;;;;;;1.18;94.58;103328.22;5017520;28;20064;-74
2022/01/25 03:17:47;;;;;;;51.05;22.35;;;;;;;1.20;94.61;103318.41;5020082;28;20034;-73
2022/01/25 03:20:20;;;;;;;47.85;20.88;;;;;;;1.19;94.95;103316.63;5026676;28;20013;-73
2022/01/25 03:25:23;;;;;;;56.88;23.08;;;;;;;1.18;95.49;103324.66;5026533;28;20473;-78
2022/01/25 03:27:48;;;;;;;50.05;22.38;;;;;;;1.16;95.02;103318.38;5026955;28;20017;-78
2022/01/25 03:30:13;;;;;;;47.35;20.90;;;;;;;1.19;94.82;103318.41;5026992;28;20037;-78
2022/01/25 03:32:39;;;;;;;53.80;22.83;;;;;;;1.21;94.99;103321.97;5014600;28;20030;-78
2022/01/25 03:35:05;;;;;;;47.28;21.95;;;;;;;1.21;94.88;103311.25;5019728;28;20083;-78
2022/01/25 03:37:30;;;;;;;51.60;22.10;;;;;;;1.23;94.77;103306.81;5022172;28;20025;-73
2022/01/25 03:39:55;;;;;;;54.47;22.60;;;;;;;1.22;94.65;103303.25;5026484;28;20436;-77
2022/01/25 03:42:21;;;;;;;51.03;24.52;;;;;;;1.22;94.92;103299.66;5018063;28;20062;-78
2022/01/25 03:44:47;;;;;;;51.58;22.77;;;;;;;1.24;94.81;103308.59;5008193;28;20025;-78
2022/01/25 03:47:16;;;;;;;54.78;22.75;;;;;;;1.24;95.09;103308.59;5020098;28;20040;-78
2022/01/25 03:49:52;;;;;;;53.80;22.42;;;;;;;1.26;94.96;103310.41;5019832;28;20026;-78
2022/01/25 03:52:24;;;;;;;54.28;24.05;;;;;;;1.28;94.70;103310.41;5026972;28;20742;-78
2022/01/25 03:54:50;;;;;;;52.40;22.70;;;;;;;1.28;94.29;103307.72;5024120;28;20083;-78
2022/01/25 03:57:17;;;;;;;51.15;24.00;;;;;;;1.30;94.46;103313.97;5026073;28;20371;-75
2022/01/25 03:59:42;;;;;;;57.58;23.45;;;;;;;1.33;94.55;103319.38;5016338;28;20041;-79
2022/01/25 04:02:08;;;;;;;51.00;21.55;;;;;;;1.33;94.60;103321.16;5018738;28;20046;-78
2022/01/25 04:04:34;;;;;;;54.92;23.15;;;;;;;1.35;95.11;103324.75;5015948;28;20050;-78
2022/01/25 04:07:07;;;;;;;60.63;24.08;;;;;;;1.34;94.56;103322.94;5012063;28;20390;-79
2022/01/25 04:09:33;;;;;;;51.78;22.77;;;;;;;1.35;95.04;103320.25;5025331;28;20022;-78
2022/01/25 04:11:58;;;;;;;53.90;22.73;;;;;;;1.36;94.54;103324.78;5015621;28;20124;-73
2022/01/25 04:14:24;;;;;;;61.08;24.70;;;;;;;1.36;94.36;103319.41;5018922;28;20470;-78
2022/01/25 04:17:05;;;;;;;50.22;22.92;;;;;;;1.39;94.48;103326.56;5022935;28;20037;-79
2022/01/25 04:24:56;;;;;;;51.95;24.15;;;;;;;1.39;94.42;103314.03;5024445;28;20112;-78
2022/01/25 04:27:25;;;;;;;54.60;22.75;;;;;;;1.42;94.95;103318.53;5022143;28;20091;-78
2022/01/25 04:29:51;;;;;;;54.25;22.60;;;;;;;1.42;94.42;103311.38;5020223;28;20084;-78
2022/01/25 04:32:18;;;;;;;54.97;24.05;;;;;;;1.41;94.45;103311.38;5026272;28;20029;-78
2022/01/25 04:34:47;;;;;;;54.28;24.08;;;;;;;1.43;94.65;103315.84;5016415;28;20017;-78
2022/01/25 04:50:58;;;;;;;50.72;22.27;;;;;;;1.48;94.52;103313.19;5030528;28;20448;-78
2022/01/25 04:53:41;;;;;;;52.13;21.98;;;;;;;1.48;94.85;103307.81;5027594;28;20020;-77
2022/01/25 04:56:15;;;;;;;55.38;21.75;;;;;;;1.47;94.89;103306.03;5014397;28;20496;-78
2022/01/25 04:58:53;;;;;;;51.05;21.33;;;;;;;1.47;95.18;103300.69;5027515;28;20105;-78
2022/01/25 05:01:19;;;;;;;55.85;25.00;;;;;;;1.48;95.02;103302.47;5035671;28;20037;-76
2022/01/25 05:04:07;;;;;;;53.42;22.58;;;;;;;1.48;95.06;103297.09;5022955;28;20041;-74
2022/01/25 05:06:33;;;;;;;59.53;25.63;;;;;;;1.49;95.09;103302.50;5014897;28;20109;-73
2022/01/25 05:09:08;;;;;;;49.08;21.80;;;;;;;1.48;95.17;103297.09;5030631;28;20639;-78
2022/01/25 05:11:36;;;;;;;60.42;23.48;;;;;;;1.50;95.25;103304.28;5024412;28;20448;-78
2022/01/25 05:16:47;;;;;;;54.85;22.63;;;;;;;1.51;95.23;103294.44;5019104;28;20030;-77
2022/01/25 05:24:25;;;;;;;52.00;22.20;;;;;;;1.54;94.92;103294.47;5019442;28;20035;-74
2022/01/25 05:26:50;;;;;;;49.70;21.77;;;;;;;1.54;95.07;103291.78;5015916;28;20034;-77
2022/01/25 05:29:16;;;;;;;55.45;23.10;;;;;;;1.52;95.09;103293.53;5029473;28;20021;-75
2022/01/25 05:31:41;;;;;;;51.78;22.70;;;;;;;1.54;94.98;103294.47;5024217;28;20092;-78
2022/01/25 05:34:08;;;;;;;48.55;22.75;;;;;;;1.56;94.99;103295.34;5017814;28;20025;-77
2022/01/25 05:36:33;;;;;;;59.38;25.17;;;;;;;1.56;95.07;103292.69;5027482;28;20029;-78
2022/01/25 05:39:02;;;;;;;55.53;22.30;;;;;;;1.56;95.60;103295.34;5026607;28;20037;-79
2022/01/25 05:41:31;;;;;;;46.17;22.42;;;;;;;1.56;95.65;103289.09;5027720;28;20033;-77
2022/01/25 05:44:15;;;;;;;49.97;22.00;;;;;;;1.58;95.50;103290.88;5025840;28;20034;-73
2022/01/25 05:46:47;;;;;;;53.70;20.88;;;;;;;1.59;95.38;103294.50;5023300;28;20017;-77
2022/01/25 05:49:12;;;;;;;56.20;21.45;;;;;;;1.56;95.48;103291.78;5012998;28;20034;-77
2022/01/25 05:51:37;;;;;;;54.00;23.13;;;;;;;1.59;95.29;103294.50;5028131;28;20462;-74
2022/01/25 05:54:03;;;;;;;53.90;22.70;;;;;;;1.58;95.55;103292.66;5029785;28;20033;-77
2022/01/25 05:56:28;;;;;;;54.67;22.77;;;;;;;1.58;95.53;103290.88;5018457;28;20108;-73
2022/01/25 05:58:53;;;;;;;48.90;20.98;;;;;;;1.60;95.49;103288.22;5025246;28;20057;-77
2022/01/25 06:01:19;;;;;;;54.80;21.98;;;;;;;1.60;95.23;103283.75;5024292;28;20048;-73
2022/01/25 06:03:45;;;;;;;51.70;21.17;;;;;;;1.60;95.38;103288.22;5019779;28;20025;-77
2022/01/25 06:06:11;;;;;;;52.45;21.25;;;;;;;1.60;95.10;103288.22;5017452;28;20034;-77
2022/01/25 06:08:37;;;;;;;53.63;22.77;;;;;;;1.61;94.88;103292.69;5022743;28;20026;-79
2022/01/25 06:11:02;;;;;;;53.88;22.45;;;;;;;1.61;95.45;103292.69;5026809;28;20482;-77
2022/01/25 06:13:27;;;;;;;54.75;23.02;;;;;;;1.59;95.20;103295.38;5024926;28;20040;-77
2022/01/25 06:15:52;;;;;;;54.15;22.05;;;;;;;1.60;94.80;103286.44;5008362;28;20030;-73
2022/01/25 06:18:18;;;;;;;51.17;21.70;;;;;;;1.59;95.26;103287.34;5010184;28;20108;-78
2022/01/25 06:20:43;;;;;;;56.38;23.85;;;;;;;1.63;95.04;103286.47;5011243;28;20520;-77
2022/01/25 06:23:08;;;;;;;56.35;23.38;;;;;;;1.63;94.96;103288.22;5016625;28;20115;-76
2022/01/25 06:25:34;;;;;;;52.40;22.40;;;;;;;1.66;95.13;103296.28;5018659;28;20026;-73
2022/01/25 06:28:00;;;;;;;56.20;23.58;;;;;;;1.63;95.58;103289.16;5018787;28;20111;-77
2022/01/25 06:30:25;;;;;;;55.90;23.65;;;;;;;1.64;95.37;103287.34;5012988;28;20050;-77
2022/01/25 06:32:51;;;;;;;54.35;21.95;;;;;;;1.64;95.33;103287.34;5003684;28;20029;-74
2022/01/25 06:35:17;;;;;;;64.35;24.75;;;;;;;1.65;95.28;103290.03;5006729;28;20100;-76
2022/01/25 06:37:44;;;;;;;57.80;23.52;;;;;;;1.63;95.64;103290.91;5008590;28;20014;-77
2022/01/25 06:40:11;;;;;;;57.42;22.60;;;;;;;1.64;95.31;103290.03;5010902;28;20036;-76
2022/01/25 06:42:36;;;;;;;52.58;23.33;;;;;;;1.64;95.44;103295.41;5008002;28;20052;-77
2022/01/25 06:45:08;;;;;;;51.38;23.08;;;;;;;1.67;95.36;103292.72;5020573;28;20025;-76
2022/01/25 06:47:33;;;;;;;56.00;23.33;;;;;;;1.67;95.37;103296.28;5019082;28;20033;-76
2022/01/25 06:49:58;;;;;;;49.88;21.60;;;;;;;1.69;95.46;103294.53;5023495;28;20031;-78
2022/01/25 06:52:24;;;;;;;54.65;23.13;;;;;;;1.68;95.38;103289.13;5019442;28;20028;-77
2022/01/25 06:54:50;;;;;;;56.97;22.58;;;;;;;1.69;95.45;103291.84;5007886;28;20026;-77
2022/01/25 06:57:15;;;;;;;64.10;25.33;;;;;;;1.69;95.69;103289.16;5008224;28;20104;-78
2022/01/25 06:59:40;;;;;;;55.10;22.83;;;;;;;1.66;95.67;103293.59;5008392;28;20092;-73
2022/01/25 07:02:06;;;;;;;58.42;23.45;;;;;;;1.66;95.71;103296.28;5021679;28;20037;-76
2022/01/25 07:04:31;;;;;;;55.20;22.98;;;;;;;1.70;95.42;103300.78;5009947;28;20040;-78
2022/01/25 07:06:57;;;;;;;59.38;22.55;;;;;;;1.71;95.46;103307.94;5013175;28;20044;-76
2022/01/25 07:09:22;;;;;;;62.15;24.45;;;;;;;1.71;95.33;103306.16;5028454;28;20105;-78
2022/01/25 07:11:48;;;;;;;54.53;23.13;;;;;;;1.74;95.62;103313.31;5017178;28;20025;-78
2022/01/25 07:14:13;;;;;;;58.28;23.25;;;;;;;1.72;95.77;103313.28;5022058;28;20026;-73
2022/01/25 07:16:38;;;;;;;57.35;23.67;;;;;;;1.72;95.89;103309.72;5017352;28;20033;-76
2022/01/25 07:19:04;;;;;;;64.38;25.05;;;;;;;1.74;95.55;103310.66;5019731;28;20033;-73
2022/01/25 07:21:29;;;;;;;56.38;23.55;;;;;;;1.74;95.38;103308.84;5028163;28;20025;-78
2022/01/25 07:23:54;;;;;;;58.00;23.65;;;;;;;1.75;95.50;103315.09;5027177;28;20030;-79
2022/01/25 07:26:20;;;;;;;53.47;22.80;;;;;;;1.75;95.52;103313.31;5016507;28;20036;-77
2022/01/25 07:28:46;;;;;;;59.30;23.40;;;;;;;1.76;95.34;103315.09;5023197;28;20029;-78
2022/01/25 07:31:12;;;;;;;63.08;25.98;;;;;;;1.78;95.53;103307.97;5021916;28;20033;-78
2022/01/25 07:33:37;;;;;;;68.20;25.08;;;;;;;1.78;95.46;103312.44;5014153;28;20060;-75
2022/01/25 07:36:05;;;;;;;64.13;23.90;;;;;;;1.76;95.84;103307.06;5007109;28;20026;-74
2022/01/25 07:38:30;;;;;;;60.35;24.38;;;;;;;1.80;96.00;103321.38;5016295;28;20489;-78
2022/01/25 07:40:55;;;;;;;63.78;24.83;;;;;;;1.77;95.87;103308.88;5019615;28;20030;-78
2022/01/25 07:43:20;;;;;;;64.82;26.38;;;;;;;1.79;95.76;103312.44;5012249;28;20030;-74
2022/01/25 07:45:51;;;;;;;62.47;26.95;;;;;;;1.79;95.36;103307.06;5008059;28;20080;-74
2022/01/25 07:48:17;;;;;;;73.07;27.75;;;;;;;1.82;94.81;103322.31;5007477;28;20070;-77
2022/01/25 07:50:43;;;;;;;61.53;24.92;;;;;;;1.83;95.42;103318.72;5010043;28;20060;-78
2022/01/25 07:53:08;;;;;;;76.22;28.15;;;;;;;1.84;94.93;103317.84;5011654;28;20030;-73
2022/01/25 07:55:33;;;;;;;72.20;27.80;;;;;;;1.85;95.44;103319.63;5011529;28;20214;-78
2022/01/25 07:57:58;;;;;;;63.65;23.55;;;;;;;1.87;95.32;103319.66;5026711;28;20029;-78
2022/01/25 08:00:24;;;;;;;91.07;34.35;;;;;;;1.89;93.91;103316.06;5011837;28;20433;-73
2022/01/25 08:02:51;;;;;;;91.15;32.80;;;;;;;1.95;93.44;103318.75;5017937;28;20060;-73
2022/01/25 08:05:19;;;;;;;94.93;35.15;;;;;;;1.96;93.29;103317.00;5023542;28;20021;-77
2022/01/25 08:07:45;;;;;;;93.32;34.22;;;;;;;1.97;93.16;103314.31;5020844;28;20105;-73
2022/01/25 08:10:11;;;;;;;97.72;33.60;;;;;;;2.01;93.02;103316.09;5010787;28;20026;-77
2022/01/25 08:12:37;;;;;;;88.78;33.20;;;;;;;2.03;93.05;103313.41;5010613;28;20088;-75
2022/01/25 08:15:05;;;;;;;91.22;33.80;;;;;;;2.06;93.58;103317.91;5011433;28;20033;-76
2022/01/25 08:17:31;;;;;;;86.05;30.63;;;;;;;2.07;94.52;103315.22;5016294;28;20036;-73
2022/01/25 08:19:56;;;;;;;83.55;29.23;;;;;;;2.09;94.09;103323.28;5017715;28;20109;-78
2022/01/25 08:22:21;;;;;;;75.32;30.27;;;;;;;2.10;94.04;103322.38;5011115;28;20397;-76
2022/01/25 08:24:47;;;;;;;82.05;30.45;;;;;;;2.11;94.42;103324.19;5012148;28;20038;-73
2022/01/25 08:27:12;;;;;;;93.93;32.05;;;;;;;2.13;93.53;103330.44;5011933;28;20026;-77
2022/01/25 08:29:38;;;;;;;86.80;32.13;;;;;;;2.14;92.95;103327.75;5012426;28;20030;-77
2022/01/25 08:32:05;;;;;;;103.18;34.80;;;;;;;2.15;92.97;103329.56;5015225;28;20033;-77
2022/01/25 08:34:30;;;;;;;89.10;31.05;;;;;;;2.18;92.90;103325.97;5018952;28;20033;-75
2022/01/25 08:36:55;;;;;;;79.18;29.98;;;;;;;2.21;93.99;103332.25;5011379;28;20033;-76
2022/01/25 08:39:21;;;;;;;82.25;30.08;;;;;;;2.23;94.08;103329.56;5020211;28;20108;-75
2022/01/25 08:41:46;;;;;;;78.38;27.92;;;;;;;2.26;94.31;103333.16;5010293;28;20034;-78
2022/01/25 08:44:11;;;;;;;84.43;31.42;;;;;;;2.27;94.74;103334.06;5027970;28;20032;-76
2022/01/25 08:46:38;;;;;;;85.15;31.98;;;;;;;2.28;94.01;103330.47;5024695;28;20076;-76
2022/01/25 08:49:03;;;;;;;80.03;28.92;;;;;;;2.30;93.91;103332.28;5011082;28;20024;-77
2022/01/25 08:51:29;;;;;;;83.90;31.80;;;;;;;2.29;92.66;103332.28;5021281;28;20116;-73
2022/01/25 08:53:54;;;;;;;89.18;31.67;;;;;;;2.33;93.02;103331.38;5011148;28;20029;-77
2022/01/25 08:56:20;;;;;;;81.32;29.30;;;;;;;2.37;93.37;103332.28;5010007;28;20029;-73
2022/01/25 08:58:45;;;;;;;82.22;31.05;;;;;;;2.39;92.96;103330.50;5010950;28;20451;-77
2022/01/25 09:01:10;;;;;;;86.47;31.75;;;;;;;2.40;93.17;103330.50;5017797;28;20501;-77
2022/01/25 09:03:36;;;;;;;86.30;32.95;;;;;;;2.44;93.45;103328.72;5010466;28;20021;-78
2022/01/25 09:06:03;;;;;;;85.78;33.03;;;;;;;2.46;93.16;103335.88;5010421;28;20033;-76
2022/01/25 09:08:29;;;;;;;96.15;38.30;;;;;;;2.50;92.32;103339.47;5027410;28;20040;-77
2022/01/25 09:10:59;;;;;;;106.20;40.00;;;;;;;2.51;90.40;103335.88;5014068;28;20084;-76
2022/01/25 09:13:25;;;;;;;104.95;39.83;;;;;;;2.54;90.33;103346.66;5021413;28;20040;-77
2022/01/25 09:15:51;;;;;;;108.63;42.90;;;;;;;2.51;88.88;103339.47;5027778;28;20128;-75
2022/01/25 09:18:16;;;;;;;110.28;40.85;;;;;;;2.54;88.61;103339.47;5014006;28;20483;-76
2022/01/25 09:20:41;;;;;;;104.63;39.15;;;;;;;2.60;87.87;103343.94;5030037;28;20113;-77
2022/01/25 09:23:07;;;;;;;102.43;40.80;;;;;;;2.61;89.21;103337.72;5030609;28;20469;-77
2022/01/25 09:25:32;;;;;;;103.05;40.92;;;;;;;2.64;89.13;103336.78;5024054;28;20061;-78
2022/01/25 09:27:59;;;;;;;100.82;38.65;;;;;;;2.69;88.06;103345.75;5010580;28;20030;-73
2022/01/25 09:30:24;;;;;;;108.53;40.22;;;;;;;2.72;89.24;103352.03;5018328;28;20029;-76
2022/01/25 09:32:50;;;;;;;111.68;41.22;;;;;;;2.77;89.86;103344.88;5022812;28;20026;-77
2022/01/25 09:35:15;;;;;;;111.60;40.38;;;;;;;2.79;89.28;103351.13;5026221;28;20029;-76
2022/01/25 09:37:41;;;;;;;109.28;40.40;;;;;;;2.81;88.00;103337.72;5025477;28;20031;-77
2022/01/25 09:40:07;;;;;;;100.43;39.97;;;;;;;2.81;87.31;103343.97;5023455;28;20033;-77
2022/01/25 09:42:32;;;;;;;104.80;40.25;;;;;;;2.86;87.46;103351.16;5016308;28;20555;-73
2022/01/25 09:44:58;;;;;;;107.05;42.10;;;;;;;2.89;87.95;103351.13;5018178;28;20053;-77
2022/01/25 09:47:23;;;;;;;105.82;42.63;;;;;;;2.90;88.15;103340.41;5019872;28;20029;-73
2022/01/25 09:49:49;;;;;;;105.80;41.10;;;;;;;2.93;87.20;103355.59;5019845;28;20021;-75
2022/01/25 09:52:16;;;;;;;105.85;40.35;;;;;;;2.94;87.27;103354.75;5029849;28;20052;-73
2022/01/25 09:54:42;;;;;;;105.32;40.63;;;;;;;2.94;87.16;103354.75;5021824;28;20393;-75
2022/01/25 09:57:07;;;;;;;102.63;41.63;;;;;;;2.95;87.75;103357.41;5027280;28;20022;-75
2022/01/25 09:59:32;;;;;;;108.75;41.13;;;;;;;2.97;87.15;103365.47;5026481;28;20067;-77
2022/01/25 10:01:58;;;;;;;105.45;42.90;;;;;;;2.98;86.75;103367.25;5021685;28;20417;-76
2022/01/25 10:04:35;;;;;;;102.20;39.05;;;;;;;2.99;85.56;103363.69;5014377;28;20107;-77
2022/01/25 10:07:01;;;;;;;103.20;41.55;;;;;;;3.01;85.92;103361.88;5028714;28;20054;-74
2022/01/25 10:09:28;;;;;;;110.57;43.33;;;;;;;3.05;85.18;103363.69;5029296;28;20539;-77
2022/01/25 10:11:55;;;;;;;110.10;41.72;;;;;;;3.09;84.66;103362.78;5026074;28;20478;-77
2022/01/25 10:14:23;;;;;;;105.82;42.05;;;;;;;3.11;85.51;103363.66;5022827;28;20037;-76
2022/01/25 10:16:53;;;;;;;103.97;40.13;;;;;;;3.17;85.93;103365.44;5020578;28;20034;-77
2022/01/25 10:19:24;;;;;;;110.72;41.85;;;;;;;3.18;85.37;103362.78;5021713;28;20083;-73
2022/01/25 10:21:51;;;;;;;107.35;40.67;;;;;;;3.21;84.91;103362.75;5013506;28;20071;-77
2022/01/25 10:24:24;;;;;;;109.38;41.47;;;;;;;3.24;85.08;103365.44;5027453;28;20064;-74
2022/01/25 10:26:55;;;;;;;105.53;40.20;;;;;;;3.25;85.00;103369.03;5019820;28;20025;-77
2022/01/25 10:29:31;;;;;;;114.40;40.33;;;;;;;3.27;84.46;103368.16;5023750;28;20030;-78
2022/01/25 10:32:06;;;;;;;104.35;38.13;;;;;;;3.31;85.06;103369.94;5021796;28;20083;-77
2022/01/25 10:34:41;;;;;;;96.90;37.13;;;;;;;3.31;83.58;103361.88;5011187;28;20049;-76
2022/01/25 10:37:12;;;;;;;105.70;41.38;;;;;;;3.34;84.92;103366.34;5022875;28;20109;-76
2022/01/25 10:39:44;;;;;;;94.20;38.72;;;;;;;3.35;83.95;103365.44;5016428;28;20025;-77
2022/01/25 10:42:23;;;;;;;95.70;41.33;;;;;;;3.33;82.93;103352.00;5013387;28;20117;-77
2022/01/25 10:44:53;;;;;;;97.47;38.78;;;;;;;3.32;83.77;103358.28;5027405;28;20033;-77
2022/01/25 10:47:37;;;;;;;89.90;36.35;;;;;;;3.34;82.59;103352.88;5020629;28;20104;-77
2022/01/25 10:50:11;;;;;;;110.03;40.80;;;;;;;3.37;83.78;103352.00;5008937;28;20042;-76
2022/01/25 10:52:36;;;;;;;104.03;40.42;;;;;;;3.36;82.78;103355.56;5019960;28;20084;-77
2022/01/25 10:55:05;;;;;;;99.90;38.28;;;;;;;3.36;83.23;103353.78;5028223;28;20251;-77
2022/01/25 10:57:31;;;;;;;104.50;40.75;;;;;;;3.37;84.04;103357.38;5025513;28;20022;-77
2022/01/25 11:00:07;;;;;;;99.05;38.75;;;;;;;3.39;82.68;103353.75;5017381;28;20058;-76
2022/01/25 11:02:32;;;;;;;94.65;36.70;;;;;;;3.41;81.58;103353.78;5017074;28;20048;-77
2022/01/25 11:05:09;;;;;;;98.40;38.13;;;;;;;3.42;83.15;103347.50;5017511;28;20037;-78
2022/01/25 11:07:40;;;;;;;98.72;39.05;;;;;;;3.43;81.70;103355.56;5016890;28;20451;-77
2022/01/25 11:10:06;;;;;;;101.05;39.42;;;;;;;3.42;82.46;103358.25;5028211;28;20033;-73
2022/01/25 11:12:37;;;;;;;92.15;37.65;;;;;;;3.42;82.38;103358.25;5019659;28;20397;-77
2022/01/25 11:15:05;;;;;;;101.45;40.70;;;;;;;3.41;81.82;103362.75;5016176;28;20030;-77
2022/01/25 11:17:32;;;;;;;98.25;38.97;;;;;;;3.43;82.11;103360.94;5008328;28;20029;-77
2022/01/25 11:19:58;;;;;;;97.63;39.65;;;;;;;3.39;81.79;103361.84;5022270;28;20453;-78
2022/01/25 11:22:25;;;;;;;99.07;38.88;;;;;;;3.42;82.13;103375.28;5027115;28;20027;-77
2022/01/25 11:24:58;;;;;;;99.10;38.25;;;;;;;3.42;80.97;103363.63;5023880;28;20071;-73
2022/01/25 11:27:26;;;;;;;100.55;37.97;;;;;;;3.44;82.61;103367.22;5014975;28;20488;-77
2022/01/25 11:29:55;;;;;;;98.53;36.72;;;;;;;3.46;82.35;103360.03;5019854;28;20033;-77
2022/01/25 11:32:25;;;;;;;105.20;39.72;;;;;;;3.49;82.99;103358.22;5021765;28;20031;-74
2022/01/25 11:34:52;;;;;;;96.88;38.72;;;;;;;3.50;81.90;103364.53;5019690;28;20029;-77
2022/01/25 11:37:18;;;;;;;99.30;38.85;;;;;;;3.49;81.69;103360.91;5022980;28;20030;-75
2022/01/25 11:39:46;;;;;;;95.10;35.97;;;;;;;3.48;80.31;103364.50;5027744;28;20079;-72
2022/01/25 11:42:24;;;;;;;92.20;35.38;;;;;;;3.47;80.39;103357.34;5025948;28;20029;-72
2022/01/25 11:44:58;;;;;;;91.18;35.90;;;;;;;3.50;81.48;103364.53;5026363;28;20095;-74
2022/01/25 11:47:31;;;;;;;94.88;37.35;;;;;;;3.52;81.49;103363.59;5024000;28;20115;-77
2022/01/25 11:50:05;;;;;;;92.32;35.78;;;;;;;3.54;80.36;103358.22;5019925;28;20436;-73
2022/01/25 11:52:31;;;;;;;90.65;36.22;;;;;;;3.54;80.17;103358.22;5027406;28;20123;-77
2022/01/25 11:55:41;;;;;;;93.90;37.25;;;;;;;3.58;82.37;103363.56;5013524;28;20493;-77
2022/01/25 11:58:11;;;;;;;95.10;35.85;;;;;;;3.58;80.47;103360.00;5012873;28;20053;-76
2022/01/25 12:00:44;;;;;;;95.53;35.97;;;;;;;3.56;80.62;103351.03;5017560;28;20174;-76
2022/01/25 12:03:51;;;;;;;88.47;35.42;;;;;;;3.55;80.93;103350.16;5020729;28;20036;-76
2022/01/25 12:06:24;;;;;;;97.40;37.55;;;;;;;3.54;79.86;103356.44;5010659;28;20484;-77
2022/01/25 12:11:48;;;;;;;92.50;38.03;;;;;;;3.52;81.37;103347.44;5011729;28;20038;-77
2022/01/25 12:14:22;;;;;;;91.57;37.50;;;;;;;3.54;80.63;103345.69;5011340;28;20499;-76
2022/01/25 12:17:17;;;;;;;101.13;38.65;;;;;;;3.56;81.13;103348.34;5018152;28;20120;-76
2022/01/25 12:19:54;;;;;;;97.63;39.08;;;;;;;3.60;81.86;103349.25;5021375;28;20041;-77
2022/01/25 12:22:26;;;;;;;102.32;37.72;;;;;;;3.66;81.06;103344.72;5020268;28;20033;-77
2022/01/25 12:25:21;;;;;;;99.85;39.38;;;;;;;3.67;80.01;103348.31;5027291;28;20040;-73
2022/01/25 12:28:01;;;;;;;91.55;36.75;;;;;;;3.68;81.13;103336.63;5014928;28;20398;-77
2022/01/25 12:30:26;;;;;;;;;;;;;;;3.73;82.83;103337.50;5018991;28;20061;-76
2022/01/25 12:33:18;;;;;;;85.20;33.67;;;;;;;3.70;81.25;103333.03;5018688;28;20364;-72
2022/01/25 12:35:59;;;;;;;88.60;33.80;;;;;;;3.68;80.45;103332.13;5015657;28;20029;-73
2022/01/25 12:38:46;;;;;;;94.53;37.15;;;;;;;3.70;81.10;103314.19;5027159;28;20021;-77
2022/01/25 12:41:20;;;;;;;98.55;36.90;;;;;;;3.75;80.15;103324.94;5034094;28;20030;-76
2022/01/25 12:43:53;;;;;;;88.20;36.15;;;;;;;3.78;79.97;103320.47;5024620;28;20033;-77
2022/01/25 12:46:24;;;;;;;95.78;36.80;;;;;;;3.81;80.63;103314.16;5027403;28;20049;-77
2022/01/25 12:48:51;;;;;;;93.13;33.75;;;;;;;3.86;79.44;103311.44;5010712;28;20037;-73
2022/01/25 12:51:22;;;;;;;93.82;37.13;;;;;;;3.92;80.29;103311.44;5024791;28;20029;-77
2022/01/25 12:53:51;;;;;;;88.57;35.10;;;;;;;3.93;79.53;103316.78;5030547;28;20029;-73